Time;durP1;ratioP1;P1;durP2;ratioP2;P2;SDS_P1;SDS_P2;PMS_P1;PMS_P2;Temp;Humidity;BMP_temperature;BMP_pressure;BME280_temperature;BME280_humidity;BME280_pressure;Samples;Min_cycle;Max_cycle;Signal;HPM_P1;HPM_P2
2020/12/11 04:22:04;;;;;;;1999.90;999.90;;;1.50;99.90;;;;;;5151087;27;20537;-48
2020/12/11 04:24:30;;;;;;;1999.90;999.90;;;1.50;99.90;;;;;;5146552;27;20471;-49
2020/12/11 04:26:55;;;;;;;1999.90;999.90;;;1.50;99.90;;;;;;5148930;27;20555;-49
2020/12/11 04:29:21;;;;;;;1999.90;999.90;;;1.50;99.90;;;;;;5147251;27;20263;-49
2020/12/11 04:31:58;;;;;;;1999.90;999.90;;;1.50;99.90;;;;;;5150577;27;20183;-48
2020/12/11 04:34:24;;;;;;;1999.90;999.90;;;1.50;99.90;;;;;;5146806;27;20175;-47
2020/12/11 04:36:54;;;;;;;1999.90;999.90;;;1.50;99.90;;;;;;5151982;27;20431;-46
2020/12/11 04:39:21;;;;;;;1999.90;999.90;;;1.50;99.90;;;;;;5131181;27;20515;-46
2020/12/11 04:41:47;;;;;;;1999.90;999.90;;;1.60;99.90;;;;;;5130043;27;20451;-47
2020/12/11 04:44:13;;;;;;;1999.90;999.90;;;1.50;99.90;;;;;;5142959;27;20931;-47
2020/12/11 04:46:39;;;;;;;1999.90;999.90;;;1.50;99.90;;;;;;5135008;27;20608;-47
2020/12/11 04:49:06;;;;;;;1999.90;999.90;;;1.50;99.90;;;;;;5151450;27;20182;-46
2020/12/11 04:51:32;;;;;;;1999.90;999.90;;;1.40;99.90;;;;;;5151154;27;20406;-47
2020/12/11 04:53:59;;;;;;;1999.90;999.90;;;1.40;99.90;;;;;;5129754;27;20436;-51
2020/12/11 04:56:25;;;;;;;1999.90;999.90;;;1.30;99.90;;;;;;5130061;27;20411;-47
2020/12/11 04:58:53;;;;;;;1999.90;999.90;;;1.30;99.90;;;;;;5133017;27;20437;-46
2020/12/11 05:01:32;;;;;;;1999.90;999.90;;;1.30;99.90;;;;;;5130088;27;20458;-47
2020/12/11 05:04:00;;;;;;;1999.90;999.90;;;1.20;99.90;;;;;;5137984;27;20418;-47
2020/12/11 05:06:26;;;;;;;1999.90;999.90;;;1.20;99.90;;;;;;5145259;27;20434;-47
2020/12/11 05:09:15;;;;;;;1999.90;999.90;;;1.20;99.90;;;;;;5131950;27;20418;-50
2020/12/11 05:11:43;;;;;;;1999.90;999.90;;;1.10;99.90;;;;;;5143646;27;20809;-49
2020/12/11 05:14:22;;;;;;;1999.90;999.90;;;1.10;99.90;;;;;;5148392;27;20404;-47
2020/12/11 05:16:58;;;;;;;1999.90;999.90;;;1.00;99.90;;;;;;5136376;27;20448;-47
2020/12/11 05:19:24;;;;;;;1999.90;999.90;;;1.00;99.90;;;;;;5129928;27;20485;-50
2020/12/11 05:21:50;;;;;;;1999.90;999.90;;;0.90;99.90;;;;;;5142535;27;20924;-47
2020/12/11 05:24:15;;;;;;;1999.90;999.90;;;0.90;99.90;;;;;;5142882;27;20194;-47
2020/12/11 05:26:41;;;;;;;1999.90;999.90;;;0.80;99.90;;;;;;5133990;27;20204;-47
2020/12/11 05:29:06;;;;;;;1999.90;999.90;;;0.70;99.90;;;;;;5139616;27;20179;-47
2020/12/11 05:31:32;;;;;;;1999.90;999.90;;;0.70;99.90;;;;;;5133122;27;23973;-47
2020/12/11 05:34:11;;;;;;;1999.90;999.90;;;0.70;99.90;;;;;;5125071;27;20666;-47
2020/12/11 05:36:53;;;;;;;1999.90;999.90;;;0.70;99.90;;;;;;5131021;27;20747;-47
2020/12/11 05:39:34;;;;;;;1999.90;999.90;;;0.70;99.90;;;;;;5116428;27;20716;-46
2020/12/11 05:42:01;;;;;;;1999.90;999.90;;;0.60;99.90;;;;;;5111179;28;20468;-47
2020/12/11 05:44:33;;;;;;;1999.90;999.90;;;0.60;99.90;;;;;;5112625;28;20439;-47
2020/12/11 05:47:22;;;;;;;1999.90;999.90;;;0.60;99.90;;;;;;5112742;28;20915;-47
2020/12/11 05:49:47;;;;;;;1999.90;999.90;;;0.50;99.90;;;;;;5112631;28;20422;-47
2020/12/11 05:52:15;;;;;;;1999.90;999.90;;;0.50;99.90;;;;;;5113199;27;20418;-47
2020/12/11 05:54:46;;;;;;;1999.90;999.90;;;0.40;99.90;;;;;;5115427;27;20180;-47
2020/12/11 05:57:14;;;;;;;1999.90;999.90;;;0.40;99.90;;;;;;5116771;27;20615;-47
2020/12/11 05:59:40;;;;;;;1999.90;999.90;;;0.40;99.90;;;;;;5131728;27;20417;-46
2020/12/11 06:02:06;;;;;;;1999.90;999.90;;;0.40;99.90;;;;;;5126388;27;21028;-47
2020/12/11 06:04:32;;;;;;;1999.90;999.90;;;0.40;99.90;;;;;;5135536;27;20478;-47
2020/12/11 06:06:58;;;;;;;1999.90;999.90;;;0.50;99.90;;;;;;5134502;27;20224;-47
2020/12/11 06:09:32;;;;;;;1999.90;999.90;;;0.60;99.90;;;;;;5136062;27;20634;-47
2020/12/11 06:11:59;;;;;;;1999.90;999.90;;;0.70;99.90;;;;;;5135900;27;20418;-47
2020/12/11 06:14:51;;;;;;;1999.90;999.90;;;0.80;99.90;;;;;;5135567;27;20434;-47
2020/12/11 06:17:20;;;;;;;1999.90;999.90;;;0.80;99.90;;;;;;5136325;27;20426;-47
2020/12/11 06:19:48;;;;;;;1999.90;999.90;;;0.90;99.90;;;;;;5135663;27;20890;-47
2020/12/11 06:22:14;;;;;;;1999.90;999.90;;;1.00;99.90;;;;;;5129414;27;20482;-47
2020/12/11 06:24:40;;;;;;;1999.90;999.90;;;1.00;99.90;;;;;;5130686;27;20559;-47
2020/12/11 06:27:06;;;;;;;1999.90;999.90;;;1.10;99.90;;;;;;5114967;27;20974;-47
2020/12/11 06:29:34;;;;;;;1999.90;999.90;;;1.10;99.90;;;;;;5116887;27;20185;-47
2020/12/11 06:32:00;;;;;;;1999.90;999.90;;;1.10;99.90;;;;;;5120623;27;20933;-47
2020/12/11 06:34:26;;;;;;;1999.90;999.90;;;1.20;99.90;;;;;;5116780;27;20445;-46
2020/12/11 06:36:53;;;;;;;1999.90;999.90;;;1.10;99.90;;;;;;5131236;27;20479;-47
2020/12/11 06:39:43;;;;;;;1999.90;999.90;;;1.10;99.90;;;;;;5133885;27;20899;-47
2020/12/11 06:42:10;;;;;;;1999.90;999.90;;;1.20;99.90;;;;;;5120116;27;20428;-47
2020/12/11 06:44:36;;;;;;;1999.90;999.90;;;1.20;99.90;;;;;;5113915;28;20433;-47
2020/12/11 06:47:06;;;;;;;1999.90;999.90;;;1.20;99.90;;;;;;5131094;27;20453;-47
2020/12/11 06:49:34;;;;;;;1999.90;999.90;;;1.30;99.90;;;;;;5135294;27;20865;-46
2020/12/11 06:52:04;;;;;;;1999.90;999.90;;;1.30;99.90;;;;;;5119709;27;20417;-47
2020/12/11 06:54:30;;;;;;;1999.90;999.90;;;1.30;99.90;;;;;;5114496;28;20898;-47
2020/12/11 06:56:58;;;;;;;1999.90;999.90;;;1.30;99.90;;;;;;5114556;28;20519;-47
2020/12/11 06:59:28;;;;;;;1999.90;999.90;;;1.40;99.90;;;;;;5114277;28;20692;-47
2020/12/11 07:02:17;;;;;;;1999.90;999.90;;;1.30;99.90;;;;;;5114171;28;20462;-47
2020/12/11 07:04:50;;;;;;;1999.90;999.90;;;1.30;99.90;;;;;;5118394;27;20419;-47
2020/12/11 07:07:21;;;;;;;1999.90;999.90;;;1.40;99.90;;;;;;5132092;27;20452;-47
2020/12/11 07:09:48;;;;;;;1999.90;999.90;;;1.40;99.90;;;;;;5135085;27;20975;-47
2020/12/11 07:12:15;;;;;;;1999.90;999.90;;;1.40;99.90;;;;;;5133395;27;20418;-47
2020/12/11 07:14:41;;;;;;;1999.90;999.90;;;1.40;99.90;;;;;;5134769;27;20418;-47
2020/12/11 07:17:07;;;;;;;1999.90;999.90;;;1.40;99.90;;;;;;5135054;27;20423;-46
2020/12/11 07:19:38;;;;;;;1999.90;999.90;;;1.40;99.90;;;;;;5130263;27;20758;-46
2020/12/11 07:22:04;;;;;;;1999.90;999.90;;;1.50;99.90;;;;;;5143904;27;20207;-47
2020/12/11 07:24:31;;;;;;;1999.90;999.90;;;1.50;99.90;;;;;;5155664;27;20469;-46
2020/12/11 07:27:04;;;;;;;1999.90;999.90;;;1.50;99.90;;;;;;5139270;27;20952;-47
2020/12/11 07:29:30;;;;;;;1999.90;999.90;;;1.50;99.90;;;;;;5128563;27;20469;-46
2020/12/11 07:31:56;;;;;;;1999.90;999.90;;;1.50;99.90;;;;;;5125208;27;20416;-47
2020/12/11 07:34:24;;;;;;;1999.90;999.90;;;1.50;99.90;;;;;;5121465;27;20216;-47
2020/12/11 07:36:54;;;;;;;1999.90;999.90;;;1.50;99.90;;;;;;5126677;27;20973;-48
2020/12/11 07:39:22;;;;;;;1999.90;999.90;;;1.50;99.90;;;;;;5134483;27;20425;-47
2020/12/11 07:41:48;;;;;;;1999.90;999.90;;;1.50;99.90;;;;;;5133951;27;20457;-46
2020/12/11 07:44:44;;;;;;;1999.90;999.90;;;1.50;99.90;;;;;;5134653;27;20498;-46
2020/12/11 07:47:15;;;;;;;1999.90;999.90;;;1.50;99.90;;;;;;5115238;27;20443;-46
2020/12/11 07:49:44;;;;;;;1999.90;999.90;;;1.50;99.90;;;;;;5134562;27;20867;-47
2020/12/11 07:52:11;;;;;;;1999.90;999.90;;;1.40;99.90;;;;;;5134016;27;20403;-47
2020/12/11 07:54:41;;;;;;;1999.90;999.90;;;1.40;99.90;;;;;;5133815;27;20409;-47
2020/12/11 07:57:11;;;;;;;1999.90;999.90;;;1.40;99.90;;;;;;5132917;27;20454;-47
2020/12/11 07:59:37;;;;;;;1999.90;999.90;;;1.40;99.90;;;;;;5133162;27;20419;-47
2020/12/11 08:02:03;;;;;;;1999.90;999.90;;;1.50;99.90;;;;;;5133649;27;20458;-47
2020/12/11 08:04:29;;;;;;;1999.90;999.90;;;1.40;99.90;;;;;;5132472;27;20431;-47
2020/12/11 08:06:58;;;;;;;1999.90;999.90;;;1.40;99.90;;;;;;5134339;27;20188;-47
2020/12/11 08:09:32;;;;;;;1999.90;999.90;;;1.40;99.90;;;;;;5113813;28;20178;-47
2020/12/11 08:12:30;;;;;;;1999.90;999.90;;;1.50;99.90;;;;;;5113308;28;20481;-47
2020/12/11 08:14:55;;;;;;;1999.90;999.90;;;1.40;99.90;;;;;;5068818;28;20415;-47
2020/12/11 08:17:22;;;;;;;1999.90;999.90;;;1.40;99.90;;;;;;5114439;28;20977;-47
2020/12/11 08:20:00;;;;;;;1999.90;999.90;;;1.40;99.90;;;;;;5113738;28;20182;-47
2020/12/11 08:22:36;;;;;;;1999.90;999.90;;;1.40;99.90;;;;;;5113767;28;20410;-48
2020/12/11 08:25:24;;;;;;;1999.90;999.90;;;1.40;99.90;;;;;;5114421;28;20414;-47
2020/12/11 08:27:50;;;;;;;1999.90;999.90;;;1.40;99.90;;;;;;5114087;28;20431;-47
2020/12/11 08:30:17;;;;;;;1999.90;999.90;;;1.40;99.90;;;;;;5114199;28;20958;-47
2020/12/11 08:32:45;;;;;;;1999.90;999.90;;;1.50;99.90;;;;;;5112906;28;20415;-47
2020/12/11 08:35:14;;;;;;;1999.90;999.90;;;1.40;99.90;;;;;;5113460;28;20502;-47
2020/12/11 08:37:56;;;;;;;1999.90;999.90;;;1.40;99.90;;;;;;5113146;28;20475;-47
2020/12/11 08:40:23;;;;;;;1999.90;999.90;;;1.40;99.90;;;;;;5113410;28;20536;-47
2020/12/11 08:45:57;;;;;;;1999.90;999.90;;;1.40;99.90;;;;;;5114530;28;20417;-47
2020/12/11 08:51:01;;;;;;;1999.90;999.90;;;1.40;99.90;;;;;;5065211;28;20421;-51
2020/12/11 08:53:28;;;;;;;1999.90;999.90;;;1.40;99.90;;;;;;5071382;28;20441;-51
2020/12/11 15:44:02;;;;;;;1999.90;999.90;;;1.00;99.90;;;;;;5106357;27;20969;-51
2020/12/11 15:46:28;;;;;;;1999.90;999.90;;;1.00;99.90;;;;;;5109264;28;20483;-52
2020/12/11 15:48:54;;;;;;;1999.90;999.90;;;1.00;99.90;;;;;;5103748;28;20455;-51
2020/12/11 15:51:24;;;;;;;1999.90;999.90;;;1.10;99.90;;;;;;5105521;28;20193;-51
2020/12/11 15:53:50;;;;;;;1999.90;999.90;;;1.10;99.90;;;;;;5098724;28;20408;-51
2020/12/11 15:56:15;;;;;;;1999.90;999.90;;;1.30;99.90;;;;;;5100000;28;20464;-51
2020/12/11 15:58:41;;;;;;;1999.90;999.90;;;1.30;99.90;;;;;;5103586;28;20827;-51
2020/12/11 16:01:07;;;;;;;1999.90;999.90;;;1.30;99.90;;;;;;5108226;28;20192;-50
2020/12/11 16:03:33;;;;;;;1999.90;999.90;;;1.30;99.90;;;;;;5107077;28;20266;-51
2020/12/11 16:05:58;;;;;;;1999.90;999.90;;;1.40;99.90;;;;;;5109196;28;20232;-50
2020/12/11 16:08:24;;;;;;;1999.90;999.90;;;1.40;99.90;;;;;;5105344;28;20212;-50
2020/12/11 16:10:50;;;;;;;1999.90;999.90;;;1.40;99.90;;;;;;5108404;28;20418;-50
2020/12/11 16:13:17;;;;;;;1999.90;999.90;;;1.40;99.90;;;;;;5108550;28;20189;-51
2020/12/11 16:15:42;;;;;;;1999.90;999.90;;;1.40;99.90;;;;;;5109487;28;20783;-50
2020/12/11 16:18:10;;;;;;;1999.90;999.90;;;1.40;99.90;;;;;;5108384;28;20443;-51
2020/12/11 16:20:37;;;;;;;1999.90;999.90;;;1.40;99.90;;;;;;5105100;28;20548;-50
2020/12/11 16:23:02;;;;;;;1999.90;999.90;;;1.40;99.90;;;;;;5106497;28;20464;-51
2020/12/11 16:25:28;;;;;;;1999.90;999.90;;;1.40;99.90;;;;;;5105779;28;20686;-51
2020/12/11 16:27:56;;;;;;;1999.90;999.90;;;1.30;99.90;;;;;;5106673;28;20206;-51
2020/12/11 16:30:21;;;;;;;1999.90;999.90;;;1.30;99.90;;;;;;5100815;28;20206;-51
2020/12/11 16:32:47;;;;;;;1999.90;999.90;;;1.30;99.90;;;;;;5105559;28;20460;-51
2020/12/11 16:35:13;;;;;;;1999.90;999.90;;;1.30;99.90;;;;;;5105058;28;20188;-51
2020/12/11 16:37:38;;;;;;;1999.90;999.90;;;1.20;99.90;;;;;;5099145;28;20224;-51
2020/12/11 16:40:05;;;;;;;1999.90;999.90;;;1.20;99.90;;;;;;5100995;28;20186;-51
2020/12/11 16:42:31;;;;;;;1999.90;999.90;;;1.20;99.90;;;;;;5100130;28;20230;-51
2020/12/11 16:47:36;;;;;;;1999.90;999.90;;;1.10;99.90;;;;;;5104897;28;21047;-51
2020/12/11 16:50:02;;;;;;;1999.90;999.90;;;1.10;99.90;;;;;;5106323;28;20413;-51
2020/12/11 16:52:28;;;;;;;1999.90;999.90;;;1.30;99.90;;;;;;5106633;28;20428;-51
2020/12/11 16:54:54;;;;;;;1999.90;999.90;;;1.20;99.90;;;;;;5095618;28;20484;-51
2020/12/11 16:57:43;;;;;;;1999.90;999.90;;;1.20;99.90;;;;;;5091291;28;20451;-50
2020/12/11 17:00:20;;;;;;;1999.90;999.90;;;1.00;99.90;;;;;;5085024;28;20950;-51
2020/12/11 17:03:09;;;;;;;1999.90;999.90;;;0.90;99.90;;;;;;5086337;28;20565;-51
2020/12/11 17:08:05;;;;;;;1999.90;999.90;;;1.00;99.90;;;;;;5087396;28;20443;-51
2020/12/11 17:10:31;;;;;;;1999.90;999.90;;;0.90;99.90;;;;;;5088763;28;20420;-51
2020/12/11 17:12:57;;;;;;;1999.90;999.90;;;0.90;99.90;;;;;;5089276;28;20801;-51
2020/12/11 17:15:22;;;;;;;1999.90;999.90;;;1.00;99.90;;;;;;5091075;28;20648;-51
2020/12/11 17:17:48;;;;;;;1999.90;999.90;;;1.00;99.90;;;;;;5092754;28;20202;-51
2020/12/11 17:20:14;;;;;;;1999.90;999.90;;;1.00;99.90;;;;;;5092799;28;20178;-50
2020/12/11 17:22:39;;;;;;;1999.90;999.90;;;1.00;99.90;;;;;;5091364;28;20672;-50
2020/12/11 17:25:06;;;;;;;1999.90;999.90;;;0.90;99.90;;;;;;5090810;28;20178;-51
2020/12/11 17:27:37;;;;;;;1999.90;999.90;;;1.00;99.90;;;;;;5089669;28;20606;-51
2020/12/11 17:30:50;;;;;;;1999.90;999.90;;;1.00;99.90;;;;;;5092211;28;20925;-51
2020/12/11 17:35:22;;;;;;;1999.90;999.90;;;0.90;99.90;;;;;;5092492;28;20420;-51
2020/12/11 17:37:47;;;;;;;1999.90;999.90;;;1.00;99.90;;;;;;5090488;28;20455;-51
2020/12/11 17:40:14;;;;;;;1999.90;999.90;;;1.00;99.90;;;;;;5091614;28;20829;-51
2020/12/11 17:42:40;;;;;;;1999.90;999.90;;;1.00;99.90;;;;;;5089516;28;20214;-50
2020/12/11 17:45:06;;;;;;;1999.90;999.90;;;1.00;99.90;;;;;;5092325;28;20842;-51
2020/12/11 17:47:32;;;;;;;1999.90;999.90;;;1.00;99.90;;;;;;5092098;28;20195;-51
2020/12/11 17:49:58;;;;;;;1999.90;999.90;;;1.00;99.90;;;;;;5092122;28;20491;-51
2020/12/11 17:52:23;;;;;;;1999.90;999.90;;;1.00;99.90;;;;;;5088700;28;20205;-51
2020/12/11 17:54:49;;;;;;;1999.90;999.90;;;0.90;99.90;;;;;;5091022;28;20665;-51
2020/12/11 17:57:15;;;;;;;1999.90;999.90;;;0.90;99.90;;;;;;5092748;28;20538;-51
2020/12/11 17:59:40;;;;;;;1999.90;999.90;;;0.80;99.90;;;;;;5090012;28;20204;-51
2020/12/11 18:02:06;;;;;;;1999.90;999.90;;;0.90;99.90;;;;;;5090969;28;20233;-51
2020/12/11 18:04:32;;;;;;;1999.90;999.90;;;0.90;99.90;;;;;;5088473;28;20265;-51
2020/12/11 18:06:58;;;;;;;1999.90;999.90;;;0.90;99.90;;;;;;5091536;28;22372;-51
2020/12/11 18:09:24;;;;;;;1999.90;999.90;;;0.80;99.90;;;;;;5087988;28;20182;-51
2020/12/11 18:11:50;;;;;;;1999.90;999.90;;;0.80;99.90;;;;;;5084961;28;20784;-50
2020/12/11 18:14:18;;;;;;;1999.90;999.90;;;0.70;99.90;;;;;;5091895;28;20186;-51
2020/12/11 18:16:48;;;;;;;1999.90;999.90;;;0.70;99.90;;;;;;5091585;28;20801;-50
2020/12/11 18:19:14;;;;;;;1999.90;999.90;;;0.70;99.90;;;;;;5093883;28;20440;-51
2020/12/11 18:21:43;;;;;;;1999.90;999.90;;;0.80;99.90;;;;;;5086535;28;20516;-51
2020/12/11 18:24:13;;;;;;;1999.90;999.90;;;0.80;99.90;;;;;;5088474;28;20446;-52
2020/12/11 18:26:43;;;;;;;1999.90;999.90;;;0.80;99.90;;;;;;5088592;28;20520;-51
2020/12/11 18:29:08;;;;;;;1999.90;999.90;;;0.80;99.90;;;;;;5090859;28;20439;-51
2020/12/11 18:31:34;;;;;;;1999.90;999.90;;;0.80;99.90;;;;;;5089422;28;20815;-51
2020/12/11 18:34:00;;;;;;;1999.90;999.90;;;0.80;99.90;;;;;;5091040;28;20182;-52
2020/12/11 18:36:25;;;;;;;1999.90;999.90;;;0.80;99.90;;;;;;5090896;28;20181;-51
2020/12/11 18:38:51;;;;;;;1999.90;999.90;;;0.90;99.90;;;;;;5092305;28;20467;-51
2020/12/11 18:41:16;;;;;;;1999.90;999.90;;;0.90;99.90;;;;;;5091453;28;20192;-51
2020/12/11 18:43:42;;;;;;;1999.90;999.90;;;0.90;99.90;;;;;;5092052;28;20624;-51
2020/12/11 18:46:08;;;;;;;1999.90;999.90;;;1.00;99.90;;;;;;5089314;28;20173;-51
2020/12/11 18:48:34;;;;;;;1999.90;999.90;;;0.90;99.90;;;;;;5093223;28;20233;-52
2020/12/11 18:51:00;;;;;;;1999.90;999.90;;;0.90;99.90;;;;;;5095007;28;20432;-52
2020/12/11 18:53:26;;;;;;;1999.90;999.90;;;1.00;99.90;;;;;;5092368;28;20204;-51
2020/12/11 18:56:05;;;;;;;1999.90;999.90;;;1.00;99.90;;;;;;5083634;28;20444;-50
2020/12/11 18:58:30;;;;;;;1999.90;999.90;;;1.00;99.90;;;;;;5079073;28;20512;-51
2020/12/11 19:00:57;;;;;;;1999.90;999.90;;;1.00;99.90;;;;;;5091674;28;20522;-51
2020/12/11 19:03:22;;;;;;;1999.90;999.90;;;1.00;99.90;;;;;;5083531;28;20204;-51
2020/12/11 19:05:59;;;;;;;1999.90;999.90;;;1.00;99.90;;;;;;5088865;28;20440;-51
2020/12/11 19:08:25;;;;;;;1999.90;999.90;;;1.00;99.90;;;;;;5091593;28;20196;-51
2020/12/11 19:10:51;;;;;;;1999.90;999.90;;;1.00;99.90;;;;;;5084736;28;20935;-52
2020/12/11 19:13:16;;;;;;;1999.90;999.90;;;1.00;99.90;;;;;;5091583;28;20216;-51
2020/12/11 19:15:42;;;;;;;1999.90;999.90;;;0.90;99.90;;;;;;5090134;28;20190;-51
2020/12/11 19:18:07;;;;;;;1999.90;999.90;;;0.90;99.90;;;;;;5090024;28;20245;-51
2020/12/11 19:20:33;;;;;;;1999.90;999.90;;;0.80;99.90;;;;;;5088888;28;20193;-52
2020/12/11 19:23:00;;;;;;;1999.90;999.90;;;0.80;99.90;;;;;;5086568;28;20221;-51
2020/12/11 19:25:26;;;;;;;1999.90;999.90;;;0.80;99.90;;;;;;5080569;28;20209;-51
2020/12/11 19:27:52;;;;;;;1999.90;999.90;;;0.90;99.90;;;;;;5082123;28;20467;-51
2020/12/11 19:30:17;;;;;;;1999.90;999.90;;;1.00;99.90;;;;;;5087459;28;20183;-51
2020/12/11 19:32:43;;;;;;;1999.90;999.90;;;1.00;99.90;;;;;;5089513;28;20189;-51
2020/12/11 19:35:09;;;;;;;1999.90;999.90;;;1.00;99.90;;;;;;5089729;28;20200;-51
2020/12/11 19:37:37;;;;;;;1999.90;999.90;;;1.00;99.90;;;;;;5082912;28;20927;-51
2020/12/11 19:40:07;;;;;;;1999.90;999.90;;;0.90;99.90;;;;;;5084063;28;20803;-52
2020/12/11 19:42:33;;;;;;;1999.90;999.90;;;0.90;99.90;;;;;;5083980;28;20540;-50
2020/12/11 19:44:58;;;;;;;1999.90;999.90;;;0.90;99.90;;;;;;5089166;28;21027;-51
2020/12/11 19:47:25;;;;;;;1999.90;999.90;;;0.80;99.90;;;;;;5086622;28;20702;-51
2020/12/11 19:49:50;;;;;;;1999.90;999.90;;;0.70;99.90;;;;;;5091808;28;20182;-51
2020/12/11 19:52:16;;;;;;;1999.90;999.90;;;0.70;99.90;;;;;;5089573;28;20439;-51
2020/12/11 19:54:42;;;;;;;1999.90;999.90;;;0.60;99.90;;;;;;5087882;28;20329;-50
2020/12/11 19:57:08;;;;;;;1999.90;999.90;;;0.50;99.90;;;;;;5089770;28;21112;-51
2020/12/11 19:59:34;;;;;;;1999.90;999.90;;;0.50;99.90;;;;;;5089067;28;20435;-51
2020/12/11 20:02:00;;;;;;;1999.90;999.90;;;0.50;99.90;;;;;;5089352;28;20553;-51
2020/12/11 20:04:27;;;;;;;1999.90;999.90;;;0.40;99.90;;;;;;5090274;28;20420;-51
2020/12/11 20:12:00;;;;;;;1999.90;999.90;;;0.30;99.90;;;;;;5089098;28;20841;-50
2020/12/11 20:14:26;;;;;;;1999.90;999.90;;;0.20;99.90;;;;;;5090711;28;20436;-50
2020/12/11 20:16:51;;;;;;;1999.90;999.90;;;0.20;99.90;;;;;;5089660;28;20828;-52
2020/12/11 20:19:17;;;;;;;1999.90;999.90;;;0.20;99.90;;;;;;5090568;28;20173;-50
2020/12/11 20:21:43;;;;;;;1999.90;999.90;;;0.20;99.90;;;;;;5090341;28;20182;-51
2020/12/11 20:24:08;;;;;;;1999.90;999.90;;;0.20;99.90;;;;;;5093400;28;20225;-50
2020/12/11 20:26:34;;;;;;;1999.90;999.90;;;0.20;99.90;;;;;;5090683;28;20588;-51
2020/12/11 20:29:00;;;;;;;1999.90;999.90;;;0.30;99.90;;;;;;5090157;28;20209;-51
2020/12/11 20:31:26;;;;;;;1999.90;999.90;;;0.20;99.90;;;;;;5092797;28;20189;-50
2020/12/11 20:33:54;;;;;;;1999.90;999.90;;;0.20;99.90;;;;;;5093168;28;20455;-51
2020/12/11 20:36:19;;;;;;;1999.90;999.90;;;0.30;99.90;;;;;;5095100;28;20431;-50
2020/12/11 20:38:45;;;;;;;1999.90;999.90;;;0.30;99.90;;;;;;5091177;28;20504;-51
2020/12/11 20:41:10;;;;;;;1999.90;999.90;;;0.40;99.90;;;;;;5092707;28;20187;-51
2020/12/11 20:43:36;;;;;;;1999.90;999.90;;;0.40;99.90;;;;;;5089919;28;20217;-51
2020/12/11 20:46:02;;;;;;;1999.90;999.90;;;0.30;99.90;;;;;;5091165;28;20189;-51
2020/12/11 20:48:27;;;;;;;1999.90;999.90;;;0.30;99.90;;;;;;5091793;28;20205;-51
2020/12/11 20:50:53;;;;;;;1999.90;999.90;;;0.40;99.90;;;;;;5091767;28;20637;-51
2020/12/11 20:53:19;;;;;;;1999.90;999.90;;;0.50;99.90;;;;;;5093490;28;20190;-51
2020/12/11 20:55:44;;;;;;;1999.90;999.90;;;0.50;99.90;;;;;;5095133;28;20185;-51
2020/12/11 20:58:10;;;;;;;1999.90;999.90;;;0.50;99.90;;;;;;5094868;28;20201;-51
2020/12/11 21:00:37;;;;;;;1999.90;999.90;;;0.40;99.90;;;;;;5092996;28;20189;-51
2020/12/11 21:03:03;;;;;;;1999.90;999.90;;;0.40;99.90;;;;;;5093530;28;20603;-50
2020/12/11 21:05:29;;;;;;;1999.90;999.90;;;0.40;99.90;;;;;;5093181;28;20464;-49
2020/12/11 21:07:54;;;;;;;1999.90;999.90;;;0.40;99.90;;;;;;5093103;28;20435;-50
2020/12/11 21:10:20;;;;;;;1999.90;999.90;;;0.40;99.90;;;;;;5093359;28;20182;-52
2020/12/11 21:12:46;;;;;;;1999.90;999.90;;;0.40;99.90;;;;;;5092952;28;20698;-52
2020/12/11 21:15:12;;;;;;;1999.90;999.90;;;0.50;99.90;;;;;;5093131;28;20276;-50
2020/12/11 21:17:39;;;;;;;1999.90;999.90;;;0.50;99.90;;;;;;5093148;28;20209;-49
2020/12/11 21:20:06;;;;;;;1999.90;999.90;;;0.60;99.90;;;;;;5092269;28;20203;-51
2020/12/11 21:22:32;;;;;;;1999.90;999.90;;;0.50;99.90;;;;;;5084051;28;20486;-50
2020/12/11 21:25:06;;;;;;;1999.90;999.90;;;0.50;99.90;;;;;;5093096;28;20422;-49
2020/12/11 21:27:32;;;;;;;1999.90;999.90;;;0.60;99.90;;;;;;5092830;28;20931;-49
2020/12/11 21:30:11;;;;;;;1999.90;999.90;;;0.60;99.90;;;;;;5086051;28;20434;-50
2020/12/11 21:32:50;;;;;;;1999.90;999.90;;;0.70;99.90;;;;;;5092909;28;20764;-50
2020/12/11 21:37:43;;;;;;;1999.90;999.90;;;0.70;99.90;;;;;;5091036;28;20446;-52
2020/12/11 21:40:08;;;;;;;1999.90;999.90;;;0.60;99.90;;;;;;5088365;28;20210;-49
2020/12/11 21:42:34;;;;;;;1999.90;999.90;;;0.60;99.90;;;;;;5090397;28;20967;-50
2020/12/11 21:44:59;;;;;;;1999.90;999.90;;;0.60;99.90;;;;;;5078094;28;20185;-52
2020/12/11 21:47:25;;;;;;;1999.90;999.90;;;0.60;99.90;;;;;;5093536;28;20666;-50
2020/12/11 21:49:51;;;;;;;1999.90;999.90;;;0.60;99.90;;;;;;5091586;28;20174;-49
2020/12/11 21:52:16;;;;;;;1999.90;999.90;;;0.60;99.90;;;;;;5092462;28;20660;-50
2020/12/11 21:54:42;;;;;;;1999.90;999.90;;;0.60;99.90;;;;;;5086302;28;20195;-52
2020/12/11 21:57:07;;;;;;;1999.90;999.90;;;0.60;99.90;;;;;;5085686;28;20798;-49
2020/12/11 21:59:33;;;;;;;1999.90;999.90;;;0.60;99.90;;;;;;5081959;28;20220;-50
2020/12/11 22:01:58;;;;;;;1999.90;999.90;;;0.60;99.90;;;;;;5087528;28;20191;-50
2020/12/11 22:04:24;;;;;;;1999.90;999.90;;;0.70;99.90;;;;;;5093814;28;20195;-50
2020/12/11 22:06:50;;;;;;;1999.90;999.90;;;0.70;99.90;;;;;;5101142;28;20184;-50
2020/12/11 22:09:15;;;;;;;1999.90;999.90;;;0.80;99.90;;;;;;5092577;28;20631;-51
2020/12/11 22:11:46;;;;;;;1999.90;999.90;;;0.80;99.90;;;;;;5090835;28;20190;-51
2020/12/11 22:14:12;;;;;;;1999.90;999.90;;;0.90;99.90;;;;;;5091696;28;20185;-50
2020/12/11 22:16:37;;;;;;;1999.90;999.90;;;1.00;99.90;;;;;;5090864;28;20489;-50
2020/12/11 22:19:03;;;;;;;1999.90;999.90;;;1.00;99.90;;;;;;5092300;28;20290;-53
2020/12/11 22:21:29;;;;;;;1999.90;999.90;;;1.00;99.90;;;;;;5092279;28;20238;-50
2020/12/11 22:23:54;;;;;;;1999.90;999.90;;;1.00;99.90;;;;;;5092512;28;20241;-50
2020/12/11 22:26:20;;;;;;;1999.90;999.90;;;1.00;99.90;;;;;;5090539;28;20276;-49
2020/12/11 22:28:46;;;;;;;1999.90;999.90;;;1.00;99.90;;;;;;5085552;28;20211;-50
2020/12/11 22:31:11;;;;;;;1999.90;999.90;;;1.00;99.90;;;;;;5087191;28;20185;-50
2020/12/11 22:33:37;;;;;;;1999.90;999.90;;;1.10;99.90;;;;;;5085221;28;20238;-51
2020/12/11 22:36:04;;;;;;;1999.90;999.90;;;1.10;99.90;;;;;;5085152;28;20185;-49
2020/12/11 22:38:30;;;;;;;1999.90;999.90;;;1.00;99.90;;;;;;5093704;28;20831;-50
2020/12/11 22:40:56;;;;;;;1999.90;999.90;;;1.10;99.90;;;;;;5092520;28;20496;-51
2020/12/11 22:43:22;;;;;;;1999.90;999.90;;;1.10;99.90;;;;;;5084535;28;20217;-50
2020/12/11 22:45:48;;;;;;;1999.90;999.90;;;1.10;99.90;;;;;;5079786;28;20553;-50
2020/12/11 22:48:14;;;;;;;1999.90;999.90;;;1.10;99.90;;;;;;5084251;28;21004;-50
2020/12/11 22:50:39;;;;;;;1999.90;999.90;;;1.10;99.90;;;;;;5090996;28;20506;-50
2020/12/11 22:53:06;;;;;;;1999.90;999.90;;;1.10;99.90;;;;;;5088815;28;21041;-52
2020/12/11 22:55:32;;;;;;;1999.90;999.90;;;1.10;99.90;;;;;;5091066;28;20190;-50
2020/12/11 22:57:58;;;;;;;1999.90;999.90;;;1.10;99.90;;;;;;5088077;28;20479;-50
2020/12/11 23:00:24;;;;;;;1999.90;999.90;;;1.10;99.90;;;;;;5088647;28;20420;-52
2020/12/11 23:02:50;;;;;;;1999.90;999.90;;;1.10;99.90;;;;;;5087160;28;20476;-50
2020/12/11 23:05:17;;;;;;;1999.90;999.90;;;1.10;99.90;;;;;;5097319;28;20424;-51
2020/12/11 23:07:43;;;;;;;1999.90;999.90;;;1.20;99.90;;;;;;5093846;28;20461;-50
2020/12/11 23:10:10;;;;;;;1999.90;999.90;;;1.10;99.90;;;;;;5089105;28;20417;-50
2020/12/11 23:12:36;;;;;;;1999.90;999.90;;;1.10;99.90;;;;;;5086742;28;20459;-50
2020/12/11 23:15:04;;;;;;;1999.90;999.90;;;1.10;99.90;;;;;;5090536;28;20422;-51
2020/12/11 23:17:29;;;;;;;1999.90;999.90;;;1.10;99.90;;;;;;5088977;28;20467;-51
2020/12/11 23:19:55;;;;;;;1999.90;999.90;;;1.20;99.90;;;;;;5086373;28;20450;-50
2020/12/11 23:22:21;;;;;;;1999.90;999.90;;;1.20;99.90;;;;;;5088496;28;20237;-51
2020/12/11 23:24:47;;;;;;;1999.90;999.90;;;1.10;99.90;;;;;;5077723;28;20216;-50
2020/12/11 23:27:13;;;;;;;1999.90;999.90;;;1.10;99.90;;;;;;5088429;28;20543;-52
2020/12/11 23:29:39;;;;;;;1999.90;999.90;;;1.10;99.90;;;;;;5087184;28;20186;-50
2020/12/11 23:32:09;;;;;;;1999.90;999.90;;;1.10;99.90;;;;;;5078975;28;20936;-50
2020/12/11 23:34:35;;;;;;;1999.90;999.90;;;1.10;99.90;;;;;;5081649;28;20475;-51
2020/12/11 23:37:01;;;;;;;1999.90;999.90;;;1.00;99.90;;;;;;5090081;28;20515;-51
2020/12/11 23:39:31;;;;;;;1999.90;999.90;;;1.00;99.90;;;;;;5087206;28;20519;-52
2020/12/11 23:41:57;;;;;;;1999.90;999.90;;;0.90;99.90;;;;;;5087317;28;20448;-52